White Bear Township, Minnesota
Current Conditions -  °F | °C
As of 9:50 PM on Saturday 24 Jan 2015 (Local Time) from K21D Reporting Station
Overcast Overcast  
Wind Chill: 29°   Ceiling: 5500
Heat Index: 34°   Visibility: 10mi
Dew Point: 32°   Wind: 6mph
Humidity: 93%   Direction: 40°NE
Pressure: 29.64"   Gusts: NA
Location:  45.0958°N, 93.0043°W
Report Text: K21D 250350Z AUTO 04005KT 10SM SCT029 SCT038 OVC055 01/00 A2964 RMK AO2
Loading
Personal Weather Stations






























Interactive Weather Map New forecast layout! Learn more

10-Day Weather Forecast

Advertisements
Track Severe Weather on mobile